Time;durP1;ratioP1;P1;durP2;ratioP2;P2;SDS_P1;SDS_P2;PMS_P1;PMS_P2;Temp;Humidity;BMP_temperature;BMP_pressure;BME280_temperature;BME280_humidity;BME280_pressure;Samples;Min_cycle;Max_cycle;Signal;HPM_P1;HPM_P2
2022/06/02 00:02:01;;;;;;;6.63;6.13;;;;;;;;;;4969731;28;20206;-51
2022/06/02 00:04:32;;;;;;;6.83;6.30;;;;;;;;;;4971054;28;20226;-52
2022/06/02 00:07:03;;;;;;;6.07;5.57;;;;;;;;;;4973119;28;20194;-51
2022/06/02 00:09:36;;;;;;;6.20;5.70;;;;;;;;;;4973519;28;20219;-51
2022/06/02 00:12:06;;;;;;;6.20;5.70;;;;;;;;;;4973307;28;20238;-52
2022/06/02 00:14:36;;;;;;;6.60;6.07;;;;;;;;;;4973290;28;20218;-52
2022/06/02 00:17:06;;;;;;;6.37;5.77;;;;;;;;;;4970657;28;20201;-53
2022/06/02 00:19:36;;;;;;;6.40;5.90;;;;;;;;;;4972216;28;20207;-52
2022/06/02 00:22:07;;;;;;;6.07;5.57;;;;;;;;;;4972834;28;20747;-52
2022/06/02 00:24:36;;;;;;;7.27;5.80;;;;;;;;;;4972925;28;20183;-52
2022/06/02 00:27:05;;;;;;;6.37;5.83;;;;;;;;;;4973153;28;20229;-52
2022/06/02 00:29:36;;;;;;;6.83;6.23;;;;;;;;;;4970836;28;20238;-51
2022/06/02 00:32:06;;;;;;;6.70;6.20;;;;;;;;;;4976095;28;20206;-52
2022/06/02 00:34:37;;;;;;;6.77;6.17;;;;;;;;;;4976834;28;20210;-53
2022/06/02 00:37:11;;;;;;;7.27;6.70;;;;;;;;;;4976357;28;20282;-53
2022/06/02 00:39:38;;;;;;;7.17;6.57;;;;;;;;;;4976609;28;20205;-53
2022/06/02 00:42:12;;;;;;;6.90;6.30;;;;;;;;;;4974727;28;20711;-53
2022/06/02 00:44:41;;;;;;;7.57;6.87;;;;;;;;;;4976572;28;20195;-52
2022/06/02 00:47:26;;;;;;;8.33;7.47;;;;;;;;;;4976210;28;20203;-53
2022/06/02 00:49:56;;;;;;;7.70;7.10;;;;;;;;;;4976605;28;21000;-51
2022/06/02 00:52:27;;;;;;;7.43;6.73;;;;;;;;;;4976388;28;20202;-52
2022/06/02 00:57:45;;;;;;;8.03;7.40;;;;;;;;;;4976047;28;20194;-53
2022/06/02 01:00:14;;;;;;;7.73;7.03;;;;;;;;;;4976273;28;20724;-53
2022/06/02 01:02:45;;;;;;;7.47;6.87;;;;;;;;;;4975966;28;20195;-53
2022/06/02 01:05:11;;;;;;;8.33;7.63;;;;;;;;;;4976422;28;20227;-51
2022/06/02 01:07:40;;;;;;;7.40;6.80;;;;;;;;;;4971559;28;20230;-53
2022/06/02 01:10:16;;;;;;;11.40;8.27;;;;;;;;;;4976220;28;20210;-53
2022/06/02 01:12:52;;;;;;;8.37;7.57;;;;;;;;;;4975971;28;20253;-53
2022/06/02 01:15:25;;;;;;;8.50;7.80;;;;;;;;;;4976293;28;20329;-53
2022/06/02 01:17:56;;;;;;;8.33;7.57;;;;;;;;;;4975615;28;20207;-53
2022/06/02 01:20:30;;;;;;;8.57;7.83;;;;;;;;;;4974822;28;20202;-53
2022/06/02 01:23:11;;;;;;;7.30;6.70;;;;;;;;;;4974826;28;20317;-53
2022/06/02 01:25:48;;;;;;;8.67;7.93;;;;;;;;;;4975861;28;20709;-52
2022/06/02 01:28:41;;;;;;;8.17;7.47;;;;;;;;;;4975569;28;20230;-53
2022/06/02 01:31:15;;;;;;;8.10;7.40;;;;;;;;;;4940956;28;20211;-53
2022/06/02 01:33:46;;;;;;;8.63;7.93;;;;;;;;;;4971289;28;20207;-53
2022/06/02 01:36:17;;;;;;;8.13;7.43;;;;;;;;;;4975582;28;20273;-53
2022/06/02 01:38:49;;;;;;;8.17;7.53;;;;;;;;;;4975757;28;20203;-53
2022/06/02 01:41:19;;;;;;;8.93;8.13;;;;;;;;;;4974660;28;20199;-53
2022/06/02 01:43:50;;;;;;;9.23;8.20;;;;;;;;;;4975448;28;20269;-53
2022/06/02 01:46:23;;;;;;;8.20;7.50;;;;;;;;;;4972188;28;20298;-53
2022/06/02 01:48:55;;;;;;;7.90;7.20;;;;;;;;;;4973872;28;20215;-53
2022/06/02 01:51:26;;;;;;;8.23;7.43;;;;;;;;;;4975664;28;20279;-53
2022/06/02 01:53:58;;;;;;;8.90;8.20;;;;;;;;;;4956076;28;20274;-53
2022/06/02 01:56:29;;;;;;;7.67;7.07;;;;;;;;;;4956076;29;20236;-53
2022/06/02 01:59:02;;;;;;;8.17;7.47;;;;;;;;;;4972795;28;20202;-52
2022/06/02 02:01:36;;;;;;;8.63;7.83;;;;;;;;;;4975353;28;20206;-52
2022/06/02 02:04:10;;;;;;;9.30;8.50;;;;;;;;;;4956314;29;20215;-53
2022/06/02 02:06:40;;;;;;;8.53;7.83;;;;;;;;;;4955959;28;20608;-53
2022/06/02 02:09:09;;;;;;;8.70;7.90;;;;;;;;;;4973700;28;20199;-53
2022/06/02 02:11:43;;;;;;;9.37;8.57;;;;;;;;;;4974967;28;20588;-52
2022/06/02 02:14:15;;;;;;;8.90;8.20;;;;;;;;;;4974965;28;20289;-53
2022/06/02 02:16:48;;;;;;;8.60;7.90;;;;;;;;;;4973112;28;20228;-53
2022/06/02 02:19:22;;;;;;;9.90;9.10;;;;;;;;;;4970652;28;20203;-53
2022/06/02 02:21:54;;;;;;;9.73;8.73;;;;;;;;;;4973128;28;20615;-52
2022/06/02 02:24:29;;;;;;;9.97;9.07;;;;;;;;;;4974522;28;20611;-53
2022/06/02 02:26:59;;;;;;;9.83;9.00;;;;;;;;;;4972806;28;20279;-52
2022/06/02 02:29:31;;;;;;;11.67;10.57;;;;;;;;;;4973569;28;20609;-53
2022/06/02 02:32:03;;;;;;;10.20;9.30;;;;;;;;;;4973923;28;20692;-52
2022/06/02 02:34:34;;;;;;;10.83;9.90;;;;;;;;;;4973477;28;20207;-52
2022/06/02 02:37:04;;;;;;;11.10;10.03;;;;;;;;;;4955401;29;20221;-52
2022/06/02 02:39:34;;;;;;;11.83;10.77;;;;;;;;;;4955462;29;20199;-53
2022/06/02 02:42:04;;;;;;;12.00;10.90;;;;;;;;;;4973444;28;20305;-52
2022/06/02 02:44:34;;;;;;;12.17;11.07;;;;;;;;;;4974211;28;20249;-53
2022/06/02 02:47:06;;;;;;;11.13;10.23;;;;;;;;;;4974423;28;20206;-53
2022/06/02 02:49:35;;;;;;;12.13;11.13;;;;;;;;;;4974135;28;20226;-52
2022/06/02 02:52:06;;;;;;;11.70;10.70;;;;;;;;;;4974216;28;20202;-53
2022/06/02 02:54:37;;;;;;;12.33;11.10;;;;;;;;;;4972872;28;20532;-52
2022/06/02 02:57:07;;;;;;;10.47;9.57;;;;;;;;;;4974158;28;20215;-53
2022/06/02 02:59:39;;;;;;;11.33;10.37;;;;;;;;;;4974142;28;20218;-53
2022/06/02 03:02:13;;;;;;;12.03;10.93;;;;;;;;;;4974264;28;20245;-53
2022/06/02 03:04:46;;;;;;;12.03;11.03;;;;;;;;;;4973808;28;20249;-54
2022/06/02 03:07:12;;;;;;;12.43;11.33;;;;;;;;;;4972525;28;20210;-53
2022/06/02 03:09:41;;;;;;;12.73;11.53;;;;;;;;;;4974118;28;20199;-53
2022/06/02 03:12:10;;;;;;;13.33;12.03;;;;;;;;;;4973577;28;20557;-54
2022/06/02 03:14:49;;;;;;;12.43;11.33;;;;;;;;;;4973729;28;20298;-53
2022/06/02 03:17:23;;;;;;;11.23;10.27;;;;;;;;;;4973761;28;20670;-53
2022/06/02 03:19:54;;;;;;;12.37;11.17;;;;;;;;;;4972413;28;20206;-53
2022/06/02 03:22:29;;;;;;;12.93;11.63;;;;;;;;;;4973696;28;20450;-53
2022/06/02 03:25:03;;;;;;;12.33;11.23;;;;;;;;;;4973873;28;20641;-53
2022/06/02 03:27:36;;;;;;;12.90;11.80;;;;;;;;;;4964942;28;20681;-53
2022/06/02 03:30:06;;;;;;;13.60;12.23;;;;;;;;;;4916388;29;20262;-53
2022/06/02 03:32:41;;;;;;;13.87;12.43;;;;;;;;;;4924579;29;20196;-53
2022/06/02 03:35:13;;;;;;;13.97;12.67;;;;;;;;;;4935190;29;20310;-54
2022/06/02 03:37:45;;;;;;;13.47;12.27;;;;;;;;;;4935124;29;20197;-53
2022/06/02 03:40:18;;;;;;;14.40;13.00;;;;;;;;;;4935263;29;20204;-55
2022/06/02 03:42:48;;;;;;;13.90;12.47;;;;;;;;;;4934839;29;20211;-54
2022/06/02 03:45:30;;;;;;;15.93;14.40;;;;;;;;;;4934506;29;20286;-54
2022/06/02 03:48:10;;;;;;;23.10;19.30;;;;;;;;;;4934697;29;20204;-52
2022/06/02 03:50:47;;;;;;;20.17;17.80;;;;;;;;;;4935239;29;20204;-53
2022/06/02 03:53:22;;;;;;;23.70;19.70;;;;;;;;;;4934610;29;20208;-53
2022/06/02 03:55:57;;;;;;;27.83;21.93;;;;;;;;;;4934777;29;20235;-53
2022/06/02 03:58:30;;;;;;;36.53;23.60;;;;;;;;;;4933638;29;20752;-53
2022/06/02 04:00:57;;;;;;;30.07;23.37;;;;;;;;;;4934841;29;20200;-54
2022/06/02 04:03:37;;;;;;;20.37;17.70;;;;;;;;;;4934833;29;20204;-55
2022/06/02 04:06:07;;;;;;;18.47;16.57;;;;;;;;;;4937412;29;20211;-53
2022/06/02 04:08:43;;;;;;;16.47;14.87;;;;;;;;;;4938398;29;20682;-53
2022/06/02 04:11:20;;;;;;;20.47;16.90;;;;;;;;;;4937578;29;20212;-54
2022/06/02 04:13:52;;;;;;;18.93;16.27;;;;;;;;;;4938645;29;20206;-53
2022/06/02 04:16:33;;;;;;;32.73;18.90;;;;;;;;;;4938867;29;20291;-53
2022/06/02 04:20:34;;;;;;;27.73;17.37;;;;;;;;;;4938271;29;20196;-54
2022/06/02 04:21:56;;;;;;;18.53;16.53;;;;;;;;;;4936476;29;20216;-53
2022/06/02 04:24:27;;;;;;;19.57;17.57;;;;;;;;;;4938557;29;20816;-53
2022/06/02 04:26:56;;;;;;;23.93;19.13;;;;;;;;;;4938168;29;20228;-54
2022/06/02 04:29:27;;;;;;;32.83;20.10;;;;;;;;;;4966428;28;20242;-53
2022/06/02 04:31:57;;;;;;;82.30;24.67;;;;;;;;;;4976942;28;20302;-54
2022/06/02 04:34:29;;;;;;;29.20;23.80;;;;;;;;;;4975491;28;20678;-53
2022/06/02 04:36:58;;;;;;;27.27;22.17;;;;;;;;;;4976887;28;20257;-53
2022/06/02 04:39:29;;;;;;;26.57;23.63;;;;;;;;;;4976718;28;20230;-53
2022/06/02 04:42:00;;;;;;;24.27;21.73;;;;;;;;;;4976701;28;20210;-54
2022/06/02 04:44:32;;;;;;;25.20;21.77;;;;;;;;;;4976614;28;20195;-54
2022/06/02 04:47:03;;;;;;;28.27;22.63;;;;;;;;;;4975721;28;20253;-54
2022/06/02 04:49:36;;;;;;;23.07;20.53;;;;;;;;;;4976434;28;20197;-54
2022/06/02 04:52:10;;;;;;;34.27;23.77;;;;;;;;;;4976114;28;20207;-53
2022/06/02 04:54:40;;;;;;;28.17;21.50;;;;;;;;;;4975033;28;20595;-54
2022/06/02 04:57:10;;;;;;;28.97;22.70;;;;;;;;;;4974721;28;20207;-54
2022/06/02 04:59:39;;;;;;;24.03;21.53;;;;;;;;;;4976134;28;20824;-54
2022/06/02 05:02:08;;;;;;;31.97;20.50;;;;;;;;;;4976240;28;20199;-54
2022/06/02 05:04:42;;;;;;;23.13;20.80;;;;;;;;;;4976108;28;20203;-54
2022/06/02 05:07:13;;;;;;;24.40;19.40;;;;;;;;;;4975295;28;20272;-54
2022/06/02 05:09:45;;;;;;;25.37;20.10;;;;;;;;;;4975882;28;20561;-53
2022/06/02 05:12:18;;;;;;;22.57;19.40;;;;;;;;;;4976010;28;20666;-54
2022/06/02 05:14:48;;;;;;;20.37;18.27;;;;;;;;;;4975866;28;20235;-53
2022/06/02 05:17:28;;;;;;;19.17;17.37;;;;;;;;;;4975861;28;20290;-53
2022/06/02 05:20:08;;;;;;;18.07;16.37;;;;;;;;;;4973734;28;20213;-53
2022/06/02 05:22:48;;;;;;;18.83;16.90;;;;;;;;;;4973517;28;20576;-54
2022/06/02 05:25:38;;;;;;;18.17;16.37;;;;;;;;;;4973457;28;20218;-54
2022/06/02 05:28:31;;;;;;;20.77;18.73;;;;;;;;;;4956486;29;20239;-54
2022/06/02 05:31:05;;;;;;;20.13;18.17;;;;;;;;;;4956447;29;20279;-54
2022/06/02 05:33:41;;;;;;;19.83;18.03;;;;;;;;;;4956594;29;20194;-54
2022/06/02 05:36:15;;;;;;;22.03;19.73;;;;;;;;;;4956390;29;20370;-53
2022/06/02 05:38:54;;;;;;;20.07;17.97;;;;;;;;;;4972529;28;20211;-53
2022/06/02 05:41:27;;;;;;;20.47;18.30;;;;;;;;;;4973987;28;20665;-53
2022/06/02 05:43:58;;;;;;;19.10;17.17;;;;;;;;;;4975374;28;20211;-54
2022/06/02 05:46:32;;;;;;;18.50;16.70;;;;;;;;;;4974700;28;20223;-54
2022/06/02 05:49:05;;;;;;;19.80;17.83;;;;;;;;;;4971107;28;20564;-54
2022/06/02 05:51:35;;;;;;;19.40;17.47;;;;;;;;;;4968209;28;20210;-54
2022/06/02 05:54:09;;;;;;;20.07;18.07;;;;;;;;;;4975376;28;20696;-53
2022/06/02 05:56:39;;;;;;;19.80;18.00;;;;;;;;;;4973353;28;20234;-54
2022/06/02 05:59:29;;;;;;;19.57;17.67;;;;;;;;;;4975363;28;20195;-54
2022/06/02 06:02:03;;;;;;;16.87;15.23;;;;;;;;;;4960566;28;20211;-53
2022/06/02 06:04:39;;;;;;;16.23;14.63;;;;;;;;;;4975327;28;20202;-53
2022/06/02 06:07:12;;;;;;;15.13;13.73;;;;;;;;;;4972533;28;20207;-53
2022/06/02 06:09:44;;;;;;;16.03;14.53;;;;;;;;;;4975252;28;20270;-53
2022/06/02 06:12:20;;;;;;;15.67;14.07;;;;;;;;;;4972763;28;20220;-53
2022/06/02 06:14:51;;;;;;;14.70;13.20;;;;;;;;;;4973670;28;20249;-54
2022/06/02 06:17:20;;;;;;;14.20;12.80;;;;;;;;;;4971500;28;20208;-53
2022/06/02 06:19:56;;;;;;;15.47;14.00;;;;;;;;;;4973705;28;20657;-51
2022/06/02 06:22:36;;;;;;;14.13;12.73;;;;;;;;;;4974745;28;20245;-53
2022/06/02 06:25:09;;;;;;;15.27;13.80;;;;;;;;;;4967265;28;20234;-52
2022/06/02 06:27:39;;;;;;;12.87;11.67;;;;;;;;;;4970338;28;20549;-53
2022/06/02 06:30:10;;;;;;;14.60;13.20;;;;;;;;;;4973780;28;20203;-52
2022/06/02 06:32:39;;;;;;;13.87;12.43;;;;;;;;;;4973913;28;20203;-52
2022/06/02 06:35:12;;;;;;;12.70;11.50;;;;;;;;;;4973474;28;20265;-53
2022/06/02 06:37:50;;;;;;;12.70;11.50;;;;;;;;;;4974194;28;20257;-54
2022/06/02 06:40:20;;;;;;;11.77;10.73;;;;;;;;;;4972949;28;20230;-52
2022/06/02 06:42:52;;;;;;;13.43;11.40;;;;;;;;;;4973477;28;20207;-52
2022/06/02 06:45:19;;;;;;;12.83;11.63;;;;;;;;;;4974035;28;20287;-53
2022/06/02 06:47:47;;;;;;;11.37;9.50;;;;;;;;;;4972854;28;20316;-53
2022/06/02 06:50:17;;;;;;;11.17;10.00;;;;;;;;;;4971122;28;20245;-53
2022/06/02 06:52:57;;;;;;;10.07;8.63;;;;;;;;;;4973220;28;20614;-53
2022/06/02 06:55:35;;;;;;;9.47;8.67;;;;;;;;;;4969654;28;20713;-54
2022/06/02 06:58:04;;;;;;;9.70;8.70;;;;;;;;;;4973365;28;20677;-53
2022/06/02 07:00:33;;;;;;;10.17;9.10;;;;;;;;;;4973530;28;20218;-53
2022/06/02 07:03:04;;;;;;;8.63;7.77;;;;;;;;;;4973238;28;20203;-54
2022/06/02 07:05:34;;;;;;;9.13;8.17;;;;;;;;;;4971905;28;20214;-53
2022/06/02 07:08:06;;;;;;;8.03;6.90;;;;;;;;;;4968652;28;20214;-52
2022/06/02 07:10:35;;;;;;;8.30;6.70;;;;;;;;;;4973637;28;20261;-52
2022/06/02 07:13:07;;;;;;;6.60;5.90;;;;;;;;;;4973103;28;20202;-53
2022/06/02 07:15:41;;;;;;;6.07;5.27;;;;;;;;;;4973773;28;20237;-55
2022/06/02 07:18:17;;;;;;;7.53;5.20;;;;;;;;;;4971678;28;20281;-53
2022/06/02 07:20:49;;;;;;;5.33;4.50;;;;;;;;;;4973652;28;20650;-54
2022/06/02 07:23:19;;;;;;;5.17;4.07;;;;;;;;;;4973531;28;20237;-53
2022/06/02 07:25:51;;;;;;;4.07;3.67;;;;;;;;;;4973455;28;20229;-52
2022/06/02 07:28:22;;;;;;;4.93;4.00;;;;;;;;;;4971604;28;20274;-53
2022/06/02 07:30:51;;;;;;;4.80;3.47;;;;;;;;;;4973544;28;20215;-53
2022/06/02 07:33:31;;;;;;;4.27;3.30;;;;;;;;;;4973424;28;20202;-52
2022/06/02 07:36:18;;;;;;;5.53;3.00;;;;;;;;;;4973170;28;20270;-52
2022/06/02 07:39:02;;;;;;;3.00;2.70;;;;;;;;;;4972469;28;20242;-53
2022/06/02 07:41:40;;;;;;;3.93;2.47;;;;;;;;;;4943750;28;20207;-52
2022/06/02 07:44:24;;;;;;;3.37;3.07;;;;;;;;;;4973379;28;20577;-53
2022/06/02 07:47:08;;;;;;;3.37;2.90;;;;;;;;;;4973064;28;20202;-54
2022/06/02 07:49:41;;;;;;;4.57;3.00;;;;;;;;;;4971590;28;20650;-53
2022/06/02 07:52:12;;;;;;;3.87;3.00;;;;;;;;;;4971977;28;20198;-53
2022/06/02 07:54:42;;;;;;;3.00;2.60;;;;;;;;;;4973004;28;20283;-54
2022/06/02 07:57:14;;;;;;;4.33;2.87;;;;;;;;;;4972982;28;20239;-53
2022/06/02 07:59:46;;;;;;;2.80;2.17;;;;;;;;;;4973055;28;20597;-53
2022/06/02 08:02:22;;;;;;;4.97;2.10;;;;;;;;;;4970995;28;20285;-53
2022/06/02 08:04:52;;;;;;;3.30;2.30;;;;;;;;;;4973117;28;20213;-53
2022/06/02 08:07:23;;;;;;;3.13;2.10;;;;;;;;;;4973096;28;20618;-52
2022/06/02 08:09:57;;;;;;;2.47;1.93;;;;;;;;;;4973188;28;20203;-53
2022/06/02 08:12:27;;;;;;;2.20;1.73;;;;;;;;;;4971364;28;20195;-53
2022/06/02 08:15:00;;;;;;;2.03;1.90;;;;;;;;;;4972371;28;20257;-52
2022/06/02 08:17:29;;;;;;;2.00;1.80;;;;;;;;;;4971946;28;20206;-52
2022/06/02 08:20:02;;;;;;;7.73;2.60;;;;;;;;;;4972953;28;20257;-53
2022/06/02 08:22:30;;;;;;;3.30;2.37;;;;;;;;;;4971793;28;20921;-54
2022/06/02 08:25:02;;;;;;;7.17;2.67;;;;;;;;;;4971930;28;20204;-53
2022/06/02 08:27:43;;;;;;;3.97;2.20;;;;;;;;;;4972331;28;20264;-53
2022/06/02 08:30:11;;;;;;;3.87;2.43;;;;;;;;;;4972020;28;20208;-53
2022/06/02 08:32:42;;;;;;;3.37;2.23;;;;;;;;;;4972688;28;20215;-54
2022/06/02 08:35:12;;;;;;;3.00;2.33;;;;;;;;;;4971343;28;20210;-54
2022/06/02 08:37:43;;;;;;;3.20;2.00;;;;;;;;;;4972373;28;20220;-53
2022/06/02 08:40:19;;;;;;;3.87;1.70;;;;;;;;;;4972331;28;20295;-53
2022/06/02 08:42:53;;;;;;;1.60;1.50;;;;;;;;;;4972855;28;20197;-54
2022/06/02 08:45:26;;;;;;;1.70;1.60;;;;;;;;;;4971477;28;20218;-52
2022/06/02 08:48:12;;;;;;;2.47;1.60;;;;;;;;;;4972294;28;20202;-53
2022/06/02 08:50:48;;;;;;;3.67;1.80;;;;;;;;;;4972251;28;20234;-52
2022/06/02 08:53:29;;;;;;;1.70;1.53;;;;;;;;;;4968275;28;20206;-53
2022/06/02 08:56:20;;;;;;;3.00;1.70;;;;;;;;;;4974312;28;20242;-53
2022/06/02 08:59:16;;;;;;;2.80;1.80;;;;;;;;;;4975866;28;20244;-53
2022/06/02 09:01:58;;;;;;;2.50;1.70;;;;;;;;;;4916191;29;20200;-53
2022/06/02 09:04:40;;;;;;;1.50;1.40;;;;;;;;;;4967744;28;20202;-53
2022/06/02 09:07:20;;;;;;;1.87;1.77;;;;;;;;;;4974226;28;20745;-54
2022/06/02 09:10:08;;;;;;;2.37;1.77;;;;;;;;;;4953366;28;20687;-52
2022/06/02 09:12:50;;;;;;;2.70;1.70;;;;;;;;;;4975477;28;20206;-53
2022/06/02 09:15:28;;;;;;;2.07;1.80;;;;;;;;;;4974024;28;20222;-54
2022/06/02 09:18:05;;;;;;;2.77;2.00;;;;;;;;;;4975669;28;20222;-53
2022/06/02 09:24:00;;;;;;;1.80;1.70;;;;;;;;;;4940856;28;20246;-54
2022/06/02 09:26:30;;;;;;;1.87;1.70;;;;;;;;;;4973631;28;20219;-54
2022/06/02 09:29:21;;;;;;;2.17;1.80;;;;;;;;;;4975225;28;20238;-54
2022/06/02 09:32:02;;;;;;;3.10;1.90;;;;;;;;;;4974948;28;20560;-54
2022/06/02 09:34:41;;;;;;;2.00;1.80;;;;;;;;;;4966636;28;20238;-54
2022/06/02 09:37:17;;;;;;;2.63;2.07;;;;;;;;;;4975165;28;20229;-53
2022/06/02 09:39:48;;;;;;;2.30;1.60;;;;;;;;;;4974972;28;20613;-54
2022/06/02 09:42:33;;;;;;;1.83;1.60;;;;;;;;;;4975129;28;20203;-54
2022/06/02 09:45:04;;;;;;;2.87;2.03;;;;;;;;;;4953971;28;20230;-54
2022/06/02 09:47:41;;;;;;;3.23;1.60;;;;;;;;;;4974769;28;20199;-53
2022/06/02 09:50:19;;;;;;;2.30;1.60;;;;;;;;;;4974251;28;20207;-53
2022/06/02 09:52:53;;;;;;;2.23;1.57;;;;;;;;;;4975035;28;20562;-53
2022/06/02 09:55:31;;;;;;;1.23;1.13;;;;;;;;;;4972950;28;20384;-54
2022/06/02 09:58:05;;;;;;;2.27;1.47;;;;;;;;;;4974952;28;20205;-53
2022/06/02 10:00:46;;;;;;;1.80;1.40;;;;;;;;;;4975054;28;20203;-53
2022/06/02 10:03:23;;;;;;;2.13;1.63;;;;;;;;;;4961287;28;20204;-53
2022/06/02 10:06:02;;;;;;;2.10;1.57;;;;;;;;;;4972991;28;20676;-54
2022/06/02 10:08:34;;;;;;;2.20;1.60;;;;;;;;;;4960501;28;20202;-53
2022/06/02 10:11:04;;;;;;;3.27;1.70;;;;;;;;;;4974273;28;20740;-53
2022/06/02 10:13:48;;;;;;;2.33;1.43;;;;;;;;;;4974599;28;20570;-53
2022/06/02 10:16:27;;;;;;;1.27;1.13;;;;;;;;;;4973876;28;20250;-54
2022/06/02 10:19:08;;;;;;;1.50;1.10;;;;;;;;;;4974792;28;20205;-55
2022/06/02 10:21:58;;;;;;;1.40;1.30;;;;;;;;;;4974817;28;20210;-54
2022/06/02 10:24:44;;;;;;;2.10;1.47;;;;;;;;;;4971441;28;20218;-54
2022/06/02 10:27:22;;;;;;;2.17;1.47;;;;;;;;;;4973554;28;20227;-53
2022/06/02 10:30:06;;;;;;;1.27;0.93;;;;;;;;;;4973547;28;20242;-54
2022/06/02 10:32:58;;;;;;;2.93;1.37;;;;;;;;;;4974202;28;20211;-54
2022/06/02 10:35:51;;;;;;;2.40;1.60;;;;;;;;;;4955229;28;20234;-53
2022/06/02 10:38:25;;;;;;;1.40;1.20;;;;;;;;;;4964604;28;20290;-54
2022/06/02 10:41:02;;;;;;;2.80;1.57;;;;;;;;;;4974670;28;20456;-54
2022/06/02 10:43:40;;;;;;;1.83;1.30;;;;;;;;;;4974191;28;20292;-53
2022/06/02 10:46:19;;;;;;;2.23;1.50;;;;;;;;;;4974602;28;20262;-54
2022/06/02 10:49:03;;;;;;;1.63;1.50;;;;;;;;;;4973187;28;20293;-53
2022/06/02 10:52:05;;;;;;;4.60;1.80;;;;;;;;;;4974312;28;20203;-53
2022/06/02 10:54:41;;;;;;;4.53;1.90;;;;;;;;;;4972642;28;20263;-54
2022/06/02 10:57:36;;;;;;;2.13;1.60;;;;;;;;;;4974384;28;20238;-54
2022/06/02 11:00:30;;;;;;;1.60;1.40;;;;;;;;;;4973939;28;20674;-53
2022/06/02 11:03:12;;;;;;;1.80;1.67;;;;;;;;;;4974289;28;20196;-53
2022/06/02 11:06:08;;;;;;;1.70;1.60;;;;;;;;;;4971196;28;20720;-54
2022/06/02 11:08:45;;;;;;;1.73;1.50;;;;;;;;;;4974198;28;20208;-53
2022/06/02 11:11:29;;;;;;;2.13;1.93;;;;;;;;;;4973724;28;20685;-54
2022/06/02 11:14:11;;;;;;;1.67;1.40;;;;;;;;;;4973751;28;20460;-53
2022/06/02 11:17:03;;;;;;;2.57;1.40;;;;;;;;;;4971762;28;20235;-53
2022/06/02 11:19:48;;;;;;;2.13;1.50;;;;;;;;;;4973713;28;20213;-53
2022/06/02 11:22:25;;;;;;;3.13;1.60;;;;;;;;;;4973603;28;20282;-53
2022/06/02 11:25:05;;;;;;;2.80;1.70;;;;;;;;;;4972094;28;20213;-52
2022/06/02 11:27:45;;;;;;;1.50;1.40;;;;;;;;;;4971432;28;20199;-54
2022/06/02 11:30:27;;;;;;;3.93;1.70;;;;;;;;;;4973200;28;20218;-54
2022/06/02 11:33:13;;;;;;;1.70;1.30;;;;;;;;;;4971707;28;20212;-52
2022/06/02 11:36:01;;;;;;;2.13;1.90;;;;;;;;;;4972194;28;20250;-54
2022/06/02 11:38:45;;;;;;;1.90;1.60;;;;;;;;;;4973465;28;20297;-53
2022/06/02 11:41:30;;;;;;;1.67;1.47;;;;;;;;;;4973624;28;20210;-54
2022/06/02 11:44:02;;;;;;;2.97;1.77;;;;;;;;;;4973292;28;20202;-53
2022/06/02 11:46:38;;;;;;;2.40;1.43;;;;;;;;;;4972699;28;20199;-53
2022/06/02 11:49:17;;;;;;;2.63;1.27;;;;;;;;;;4973131;28;20289;-54
2022/06/02 11:51:56;;;;;;;5.33;1.40;;;;;;;;;;4973640;28;20212;-53
2022/06/02 11:54:45;;;;;;;1.73;1.60;;;;;;;;;;4972730;28;20662;-54
2022/06/02 11:57:33;;;;;;;2.97;1.50;;;;;;;;;;4970751;28;20357;-54
2022/06/02 12:00:09;;;;;;;3.07;1.40;;;;;;;;;;4972039;28;20780;-53
2022/06/02 12:02:50;;;;;;;2.50;1.30;;;;;;;;;;4973017;28;20231;-54
2022/06/02 12:05:33;;;;;;;3.37;1.40;;;;;;;;;;4973442;28;20631;-54
2022/06/02 12:08:12;;;;;;;1.50;1.40;;;;;;;;;;4971592;28;20297;-54
2022/06/02 12:10:54;;;;;;;2.43;1.60;;;;;;;;;;4973229;28;20199;-54
2022/06/02 12:13:28;;;;;;;1.73;1.33;;;;;;;;;;4972915;28;20294;-54
2022/06/02 12:16:07;;;;;;;2.70;1.50;;;;;;;;;;4973136;28;20227;-53
2022/06/02 12:18:38;;;;;;;1.63;1.43;;;;;;;;;;4970942;28;20202;-54
2022/06/02 12:21:23;;;;;;;1.53;1.43;;;;;;;;;;4973339;28;20203;-53
2022/06/02 12:24:05;;;;;;;2.17;1.50;;;;;;;;;;4972765;28;20712;-53
2022/06/02 12:26:37;;;;;;;1.90;1.70;;;;;;;;;;4970463;28;20226;-52
2022/06/02 12:29:12;;;;;;;2.57;1.80;;;;;;;;;;4974911;28;20270;-53
2022/06/02 12:31:45;;;;;;;2.50;1.50;;;;;;;;;;4976671;28;20205;-52
2022/06/02 12:34:19;;;;;;;1.40;1.30;;;;;;;;;;4976728;28;20658;-53
2022/06/02 12:36:52;;;;;;;1.30;1.20;;;;;;;;;;4976385;28;20230;-53
2022/06/02 12:39:27;;;;;;;2.83;1.30;;;;;;;;;;4975829;28;20206;-53
2022/06/02 12:42:18;;;;;;;1.57;1.40;;;;;;;;;;4976627;28;20667;-53
2022/06/02 12:44:58;;;;;;;1.60;1.30;;;;;;;;;;4976474;28;20195;-53
2022/06/02 12:47:39;;;;;;;1.37;1.27;;;;;;;;;;4976468;28;20208;-53
2022/06/02 12:50:20;;;;;;;1.43;1.20;;;;;;;;;;4974791;28;20294;-53
2022/06/02 12:53:04;;;;;;;1.67;1.20;;;;;;;;;;4967726;28;20209;-53
2022/06/02 12:55:41;;;;;;;2.50;1.70;;;;;;;;;;4969492;28;20205;-53
2022/06/02 12:58:31;;;;;;;1.70;1.40;;;;;;;;;;4976471;28;20205;-53
2022/06/02 13:01:08;;;;;;;1.70;1.30;;;;;;;;;;4973861;28;20196;-54
2022/06/02 13:03:52;;;;;;;3.03;1.30;;;;;;;;;;4972689;28;20296;-53
2022/06/02 13:06:44;;;;;;;1.87;1.50;;;;;;;;;;4976390;28;20204;-52
2022/06/02 13:09:34;;;;;;;1.57;1.40;;;;;;;;;;4968144;28;20210;-53
2022/06/02 13:12:11;;;;;;;2.43;1.13;;;;;;;;;;4920763;28;20218;-53
2022/06/02 13:14:48;;;;;;;3.50;1.30;;;;;;;;;;4973200;28;20236;-53
2022/06/02 13:17:18;;;;;;;1.73;1.27;;;;;;;;;;4975408;28;20231;-53
2022/06/02 13:19:54;;;;;;;1.73;1.30;;;;;;;;;;4975985;28;20210;-53
2022/06/02 13:22:30;;;;;;;1.80;1.30;;;;;;;;;;4976186;28;20203;-54
2022/06/02 13:25:12;;;;;;;2.60;1.30;;;;;;;;;;4974739;28;20688;-54
2022/06/02 13:27:57;;;;;;;1.40;1.30;;;;;;;;;;4975409;28;20194;-54
2022/06/02 13:30:39;;;;;;;1.27;1.10;;;;;;;;;;4975334;28;20716;-54
2022/06/02 13:33:22;;;;;;;1.87;1.40;;;;;;;;;;4975718;28;20217;-54
2022/06/02 13:36:01;;;;;;;2.17;1.10;;;;;;;;;;4972236;28;20685;-54
2022/06/02 13:38:45;;;;;;;1.53;1.10;;;;;;;;;;4972771;28;20303;-55
2022/06/02 13:41:21;;;;;;;1.97;1.23;;;;;;;;;;4974473;28;20214;-53
2022/06/02 13:43:56;;;;;;;2.30;1.43;;;;;;;;;;4975060;28;20202;-53
2022/06/02 13:46:40;;;;;;;2.00;1.40;;;;;;;;;;4973691;28;20216;-52
2022/06/02 13:49:25;;;;;;;1.50;1.40;;;;;;;;;;4973785;28;20210;-53
2022/06/02 13:52:04;;;;;;;1.20;1.10;;;;;;;;;;4975322;28;20728;-53
2022/06/02 13:57:40;;;;;;;1.97;1.33;;;;;;;;;;4975036;28;20276;-53
2022/06/02 14:00:30;;;;;;;1.10;0.90;;;;;;;;;;4974999;28;20234;-53
2022/06/02 14:03:05;;;;;;;3.67;1.17;;;;;;;;;;4975274;28;20206;-52
2022/06/02 14:05:41;;;;;;;2.83;1.43;;;;;;;;;;4975010;28;20202;-53
2022/06/02 14:08:25;;;;;;;1.30;1.20;;;;;;;;;;4974723;28;20205;-53
2022/06/02 14:10:57;;;;;;;1.80;1.10;;;;;;;;;;4974575;28;20709;-53
2022/06/02 14:13:33;;;;;;;1.97;1.30;;;;;;;;;;4974907;28;20654;-53
2022/06/02 14:16:05;;;;;;;1.00;1.00;;;;;;;;;;4972679;28;20591;-54
2022/06/02 14:18:49;;;;;;;2.00;1.27;;;;;;;;;;4974107;28;20627;-52
2022/06/02 14:21:17;;;;;;;2.03;1.20;;;;;;;;;;4974983;28;20290;-53
2022/06/02 14:24:01;;;;;;;1.77;1.07;;;;;;;;;;4974439;28;20229;-54
2022/06/02 14:26:32;;;;;;;1.93;1.20;;;;;;;;;;4970734;28;20234;-53
2022/06/02 14:29:10;;;;;;;2.37;1.10;;;;;;;;;;4972652;28;20231;-53
2022/06/02 14:31:43;;;;;;;1.37;1.10;;;;;;;;;;4974643;28;20201;-53
2022/06/02 14:34:14;;;;;;;2.30;1.37;;;;;;;;;;4974776;28;20229;-53
2022/06/02 14:36:42;;;;;;;1.37;0.97;;;;;;;;;;4973025;28;20249;-53
2022/06/02 14:39:15;;;;;;;1.60;1.10;;;;;;;;;;4974344;28;20209;-53
2022/06/02 14:41:49;;;;;;;1.63;1.40;;;;;;;;;;4974172;28;20193;-53
2022/06/02 14:44:19;;;;;;;1.40;1.27;;;;;;;;;;4974538;28;20198;-53
2022/06/02 14:46:59;;;;;;;5.53;1.47;;;;;;;;;;4973020;28;20537;-53
2022/06/02 14:49:31;;;;;;;3.20;1.40;;;;;;;;;;4973949;28;20755;-53
2022/06/02 14:52:02;;;;;;;1.37;1.03;;;;;;;;;;4973646;28;20206;-53
2022/06/02 14:54:35;;;;;;;1.90;1.10;;;;;;;;;;4974403;28;20206;-53
2022/06/02 14:57:09;;;;;;;1.70;1.20;;;;;;;;;;4972234;28;20233;-53
2022/06/02 14:59:41;;;;;;;2.63;1.20;;;;;;;;;;4973651;28;20195;-53
2022/06/02 15:02:19;;;;;;;2.13;1.23;;;;;;;;;;4971404;28;20226;-53
2022/06/02 15:04:59;;;;;;;1.43;1.20;;;;;;;;;;4974060;28;20195;-53
2022/06/02 15:07:37;;;;;;;1.53;1.00;;;;;;;;;;4973758;28;20202;-53
2022/06/02 15:10:10;;;;;;;1.30;1.20;;;;;;;;;;4973685;28;20198;-53
2022/06/02 15:12:44;;;;;;;1.17;1.10;;;;;;;;;;4970266;28;20240;-53
2022/06/02 15:15:21;;;;;;;1.83;1.13;;;;;;;;;;4973415;28;20204;-53
2022/06/02 15:17:57;;;;;;;1.00;1.00;;;;;;;;;;4973607;28;20264;-53
2022/06/02 15:20:28;;;;;;;1.30;1.20;;;;;;;;;;4973948;28;20220;-53
2022/06/02 15:23:12;;;;;;;1.77;1.27;;;;;;;;;;4970313;28;20216;-53
2022/06/02 15:25:40;;;;;;;1.20;1.10;;;;;;;;;;4972016;28;20221;-53
2022/06/02 15:28:15;;;;;;;1.10;1.03;;;;;;;;;;4973231;28;20606;-53
2022/06/02 15:30:53;;;;;;;1.23;1.10;;;;;;;;;;4973168;28;20219;-53
2022/06/02 15:33:40;;;;;;;1.90;1.13;;;;;;;;;;4973792;28;20282;-54
2022/06/02 15:36:40;;;;;;;2.50;1.20;;;;;;;;;;4963314;28;20228;-54